sensor_id;sensor_type;location;lat;lon;timestamp;temperature;humidity
11619;DHT22;5865;48.776;9.280;2023-07-22T00:00:10;12.00;99.90
11619;DHT22;5865;48.776;9.280;2023-07-22T00:07:35;11.80;99.90
11619;DHT22;5865;48.776;9.280;2023-07-22T00:10:04;11.80;99.90
11619;DHT22;5865;48.776;9.280;2023-07-22T00:12:31;11.80;99.90
11619;DHT22;5865;48.776;9.280;2023-07-22T00:14:58;11.70;99.90
11619;DHT22;5865;48.776;9.280;2023-07-22T00:17:25;11.70;99.90
11619;DHT22;5865;48.776;9.280;2023-07-22T00:19:51;11.40;99.90
11619;DHT22;5865;48.776;9.280;2023-07-22T00:27:14;11.40;99.90
11619;DHT22;5865;48.776;9.280;2023-07-22T00:29:41;11.30;99.90
11619;DHT22;5865;48.776;9.280;2023-07-22T00:32:08;11.30;99.90
11619;DHT22;5865;48.776;9.280;2023-07-22T00:39:30;11.20;99.90
11619;DHT22;5865;48.776;9.280;2023-07-22T00:44:52;11.30;99.90
11619;DHT22;5865;48.776;9.280;2023-07-22T00:47:22;11.30;99.90
11619;DHT22;5865;48.776;9.280;2023-07-22T00:49:49;11.10;99.90
11619;DHT22;5865;48.776;9.280;2023-07-22T00:54:44;11.00;99.90
11619;DHT22;5865;48.776;9.280;2023-07-22T01:04:35;10.70;99.90
11619;DHT22;5865;48.776;9.280;2023-07-22T01:07:04;10.80;99.90
11619;DHT22;5865;48.776;9.280;2023-07-22T01:09:36;10.80;99.90
11619;DHT22;5865;48.776;9.280;2023-07-22T01:12:04;10.80;99.90
11619;DHT22;5865;48.776;9.280;2023-07-22T01:14:32;10.90;99.90
11619;DHT22;5865;48.776;9.280;2023-07-22T01:17:00;10.80;99.90
11619;DHT22;5865;48.776;9.280;2023-07-22T01:21:57;10.70;99.90
11619;DHT22;5865;48.776;9.280;2023-07-22T01:24:27;10.60;99.90
11619;DHT22;5865;48.776;9.280;2023-07-22T01:26:54;10.60;99.90
11619;DHT22;5865;48.776;9.280;2023-07-22T01:29:22;10.60;99.90
11619;DHT22;5865;48.776;9.280;2023-07-22T01:31:51;10.60;99.90
11619;DHT22;5865;48.776;9.280;2023-07-22T01:34:19;10.60;99.90
11619;DHT22;5865;48.776;9.280;2023-07-22T01:39:27;10.60;99.90
11619;DHT22;5865;48.776;9.280;2023-07-22T01:41:56;10.50;99.90
11619;DHT22;5865;48.776;9.280;2023-07-22T01:44:23;10.40;99.90
11619;DHT22;5865;48.776;9.280;2023-07-22T01:46:50;10.50;99.90
11619;DHT22;5865;48.776;9.280;2023-07-22T01:49:17;10.40;99.90
11619;DHT22;5865;48.776;9.280;2023-07-22T01:54:11;10.40;99.90
11619;DHT22;5865;48.776;9.280;2023-07-22T01:56:40;8.80;99.90
11619;DHT22;5865;48.776;9.280;2023-07-22T02:01:35;10.50;99.90
11619;DHT22;5865;48.776;9.280;2023-07-22T02:04:02;10.50;99.90
11619;DHT22;5865;48.776;9.280;2023-07-22T02:08:56;10.50;99.90
11619;DHT22;5865;48.776;9.280;2023-07-22T02:11:23;10.50;99.90
11619;DHT22;5865;48.776;9.280;2023-07-22T02:13:51;10.50;99.90
11619;DHT22;5865;48.776;9.280;2023-07-22T02:18:45;10.40;99.90
11619;DHT22;5865;48.776;9.280;2023-07-22T02:23:40;10.30;99.90
11619;DHT22;5865;48.776;9.280;2023-07-22T02:26:07;10.30;99.90
11619;DHT22;5865;48.776;9.280;2023-07-22T02:31:03;10.30;99.90
11619;DHT22;5865;48.776;9.280;2023-07-22T02:33:32;10.40;99.90
11619;DHT22;5865;48.776;9.280;2023-07-22T02:35:59;10.30;99.90
11619;DHT22;5865;48.776;9.280;2023-07-22T02:38:26;10.40;99.90
11619;DHT22;5865;48.776;9.280;2023-07-22T02:40:53;10.40;99.90
11619;DHT22;5865;48.776;9.280;2023-07-22T02:43:20;10.40;99.90
11619;DHT22;5865;48.776;9.280;2023-07-22T02:48:15;10.30;99.90
11619;DHT22;5865;48.776;9.280;2023-07-22T02:55:36;10.30;99.90
11619;DHT22;5865;48.776;9.280;2023-07-22T03:00:32;10.20;99.90
11619;DHT22;5865;48.776;9.280;2023-07-22T03:02:59;10.20;99.90
11619;DHT22;5865;48.776;9.280;2023-07-22T03:05:29;10.20;99.90
11619;DHT22;5865;48.776;9.280;2023-07-22T03:07:56;10.20;99.90
11619;DHT22;5865;48.776;9.280;2023-07-22T03:10:23;10.20;99.90
11619;DHT22;5865;48.776;9.280;2023-07-22T03:12:51;10.20;99.90
11619;DHT22;5865;48.776;9.280;2023-07-22T03:15:21;10.10;99.90
11619;DHT22;5865;48.776;9.280;2023-07-22T03:20:16;10.10;99.90
11619;DHT22;5865;48.776;9.280;2023-07-22T03:25:14;10.10;99.90
11619;DHT22;5865;48.776;9.280;2023-07-22T03:27:43;10.20;99.90
11619;DHT22;5865;48.776;9.280;2023-07-22T03:30:12;10.20;99.90
11619;DHT22;5865;48.776;9.280;2023-07-22T03:32:40;10.20;99.90
11619;DHT22;5865;48.776;9.280;2023-07-22T03:35:08;10.20;99.90
11619;DHT22;5865;48.776;9.280;2023-07-22T03:37:36;10.20;99.90
11619;DHT22;5865;48.776;9.280;2023-07-22T03:40:05;10.20;99.90
11619;DHT22;5865;48.776;9.280;2023-07-22T03:42:36;10.20;99.90
11619;DHT22;5865;48.776;9.280;2023-07-22T03:45:04;10.20;99.90
11619;DHT22;5865;48.776;9.280;2023-07-22T03:49:59;10.20;99.90
11619;DHT22;5865;48.776;9.280;2023-07-22T03:54:53;10.20;99.90
11619;DHT22;5865;48.776;9.280;2023-07-22T03:57:25;10.20;99.90
11619;DHT22;5865;48.776;9.280;2023-07-22T03:59:52;10.20;99.90
11619;DHT22;5865;48.776;9.280;2023-07-22T04:02:19;10.20;99.90
11619;DHT22;5865;48.776;9.280;2023-07-22T04:04:45;10.30;99.90
11619;DHT22;5865;48.776;9.280;2023-07-22T04:09:40;10.40;99.90
11619;DHT22;5865;48.776;9.280;2023-07-22T04:12:08;10.40;99.90
11619;DHT22;5865;48.776;9.280;2023-07-22T04:14:36;10.50;99.90
11619;DHT22;5865;48.776;9.280;2023-07-22T04:17:04;10.60;99.90
11619;DHT22;5865;48.776;9.280;2023-07-22T04:21:58;10.60;99.90
11619;DHT22;5865;48.776;9.280;2023-07-22T04:24:29;10.70;99.90
11619;DHT22;5865;48.776;9.280;2023-07-22T04:29:25;10.90;99.90
11619;DHT22;5865;48.776;9.280;2023-07-22T04:32:00;10.90;99.90
11619;DHT22;5865;48.776;9.280;2023-07-22T04:34:29;10.90;99.90
11619;DHT22;5865;48.776;9.280;2023-07-22T04:39:23;11.10;99.90
11619;DHT22;5865;48.776;9.280;2023-07-22T04:41:50;11.10;99.90
11619;DHT22;5865;48.776;9.280;2023-07-22T04:44:18;11.20;99.90
11619;DHT22;5865;48.776;9.280;2023-07-22T04:49:14;11.30;99.90
11619;DHT22;5865;48.776;9.280;2023-07-22T04:51:44;11.30;99.90
11619;DHT22;5865;48.776;9.280;2023-07-22T04:54:11;11.40;99.90
11619;DHT22;5865;48.776;9.280;2023-07-22T05:06:29;12.50;99.90
11619;DHT22;5865;48.776;9.280;2023-07-22T05:08:57;12.70;99.90
11619;DHT22;5865;48.776;9.280;2023-07-22T05:11:24;12.80;99.90
11619;DHT22;5865;48.776;9.280;2023-07-22T05:13:51;12.90;99.90
11619;DHT22;5865;48.776;9.280;2023-07-22T05:16:18;13.10;99.90
11619;DHT22;5865;48.776;9.280;2023-07-22T05:18:46;13.00;99.90
11619;DHT22;5865;48.776;9.280;2023-07-22T05:21:13;13.20;99.90
11619;DHT22;5865;48.776;9.280;2023-07-22T05:23:42;13.20;99.90
11619;DHT22;5865;48.776;9.280;2023-07-22T05:26:09;13.20;99.90
11619;DHT22;5865;48.776;9.280;2023-07-22T05:28:36;13.20;99.90
11619;DHT22;5865;48.776;9.280;2023-07-22T05:31:03;13.30;99.90
11619;DHT22;5865;48.776;9.280;2023-07-22T05:33:30;13.40;99.90
11619;DHT22;5865;48.776;9.280;2023-07-22T05:35:57;13.50;99.90
11619;DHT22;5865;48.776;9.280;2023-07-22T05:38:24;13.60;99.90
11619;DHT22;5865;48.776;9.280;2023-07-22T05:40:53;13.80;99.90
11619;DHT22;5865;48.776;9.280;2023-07-22T05:43:20;13.90;99.90
11619;DHT22;5865;48.776;9.280;2023-07-22T05:45:47;13.90;99.90
11619;DHT22;5865;48.776;9.280;2023-07-22T05:48:14;14.10;99.90
11619;DHT22;5865;48.776;9.280;2023-07-22T05:50:41;14.10;99.90
11619;DHT22;5865;48.776;9.280;2023-07-22T05:58:04;14.50;99.90
11619;DHT22;5865;48.776;9.280;2023-07-22T06:00:32;14.60;99.90
11619;DHT22;5865;48.776;9.280;2023-07-22T06:02:59;14.70;99.90
11619;DHT22;5865;48.776;9.280;2023-07-22T06:05:26;14.80;99.90
11619;DHT22;5865;48.776;9.280;2023-07-22T06:07:53;14.90;99.90
11619;DHT22;5865;48.776;9.280;2023-07-22T06:10:22;15.20;99.90
11619;DHT22;5865;48.776;9.280;2023-07-22T06:12:49;15.20;99.90
11619;DHT22;5865;48.776;9.280;2023-07-22T06:15:17;15.40;99.90
11619;DHT22;5865;48.776;9.280;2023-07-22T06:20:12;16.00;99.90
11619;DHT22;5865;48.776;9.280;2023-07-22T06:25:07;16.20;99.90
11619;DHT22;5865;48.776;9.280;2023-07-22T06:27:34;16.10;99.90
11619;DHT22;5865;48.776;9.280;2023-07-22T06:30:01;16.10;99.90
11619;DHT22;5865;48.776;9.280;2023-07-22T06:32:30;16.30;99.90
11619;DHT22;5865;48.776;9.280;2023-07-22T06:34:57;16.60;99.90
11619;DHT22;5865;48.776;9.280;2023-07-22T06:37:24;16.90;99.90
11619;DHT22;5865;48.776;9.280;2023-07-22T06:39:51;17.30;99.90
11619;DHT22;5865;48.776;9.280;2023-07-22T06:42:18;17.30;99.90
11619;DHT22;5865;48.776;9.280;2023-07-22T06:44:45;17.50;99.90
11619;DHT22;5865;48.776;9.280;2023-07-22T06:47:12;17.70;99.90
11619;DHT22;5865;48.776;9.280;2023-07-22T06:49:41;18.00;99.90
11619;DHT22;5865;48.776;9.280;2023-07-22T06:54:38;17.90;99.90
11619;DHT22;5865;48.776;9.280;2023-07-22T06:57:06;17.90;99.90
11619;DHT22;5865;48.776;9.280;2023-07-22T06:59:33;18.30;99.90
11619;DHT22;5865;48.776;9.280;2023-07-22T07:02:00;18.30;99.90
11619;DHT22;5865;48.776;9.280;2023-07-22T07:04:30;18.10;99.90
11619;DHT22;5865;48.776;9.280;2023-07-22T07:06:58;17.60;99.90
11619;DHT22;5865;48.776;9.280;2023-07-22T07:09:26;17.50;99.90
11619;DHT22;5865;48.776;9.280;2023-07-22T07:11:53;17.40;99.90
11619;DHT22;5865;48.776;9.280;2023-07-22T07:14:22;17.80;99.90
11619;DHT22;5865;48.776;9.280;2023-07-22T07:16:50;18.10;99.90
11619;DHT22;5865;48.776;9.280;2023-07-22T07:19:18;18.10;99.90
11619;DHT22;5865;48.776;9.280;2023-07-22T07:21:45;18.20;99.90
11619;DHT22;5865;48.776;9.280;2023-07-22T07:24:13;18.20;99.90
11619;DHT22;5865;48.776;9.280;2023-07-22T07:26:40;17.80;99.90
11619;DHT22;5865;48.776;9.280;2023-07-22T07:29:07;18.00;99.90
11619;DHT22;5865;48.776;9.280;2023-07-22T08:34:47;22.20;99.90
11619;DHT22;5865;48.776;9.280;2023-07-22T09:10:24;25.40;84.70
11619;DHT22;5865;48.776;9.280;2023-07-22T10:18:28;25.70;70.90
11619;DHT22;5865;48.776;9.280;2023-07-22T10:21:12;25.40;68.10
11619;DHT22;5865;48.776;9.280;2023-07-22T10:23:41;26.30;69.10
11619;DHT22;5865;48.776;9.280;2023-07-22T10:40:26;26.60;61.70
11619;DHT22;5865;48.776;9.280;2023-07-22T10:43:09;26.10;58.80
11619;DHT22;5865;48.776;9.280;2023-07-22T10:45:52;26.50;59.40
11619;DHT22;5865;48.776;9.280;2023-07-22T11:12:16;27.00;57.20
11619;DHT22;5865;48.776;9.280;2023-07-22T11:41:35;27.00;57.50
11619;DHT22;5865;48.776;9.280;2023-07-22T11:46:54;26.80;59.10
11619;DHT22;5865;48.776;9.280;2023-07-22T11:52:10;26.30;59.90
11619;DHT22;5865;48.776;9.280;2023-07-22T12:00:33;26.50;60.00
11619;DHT22;5865;48.776;9.280;2023-07-22T12:17:01;26.90;58.20
11619;DHT22;5865;48.776;9.280;2023-07-22T13:22:16;27.50;53.60
11619;DHT22;5865;48.776;9.280;2023-07-22T13:37:30;29.30;49.70
11619;DHT22;5865;48.776;9.280;2023-07-22T13:54:44;31.70;44.00
11619;DHT22;5865;48.776;9.280;2023-07-22T13:59:43;33.00;42.20
11619;DHT22;5865;48.776;9.280;2023-07-22T14:04:38;30.40;43.90
11619;DHT22;5865;48.776;9.280;2023-07-22T14:25:20;28.10;47.90
11619;DHT22;5865;48.776;9.280;2023-07-22T14:30:15;29.40;47.20
11619;DHT22;5865;48.776;9.280;2023-07-22T14:32:42;32.80;43.00
11619;DHT22;5865;48.776;9.280;2023-07-22T14:35:09;32.80;42.60
11619;DHT22;5865;48.776;9.280;2023-07-22T15:59:13;28.30;46.50
11619;DHT22;5865;48.776;9.280;2023-07-22T16:30:59;27.20;50.40
11619;DHT22;5865;48.776;9.280;2023-07-22T17:05:19;28.00;48.60
11619;DHT22;5865;48.776;9.280;2023-07-22T17:07:46;27.80;48.80
11619;DHT22;5865;48.776;9.280;2023-07-22T17:10:13;27.30;49.60
11619;DHT22;5865;48.776;9.280;2023-07-22T17:12:54;27.10;50.40
11619;DHT22;5865;48.776;9.280;2023-07-22T17:23:54;25.90;51.20
11619;DHT22;5865;48.776;9.280;2023-07-22T17:28:48;25.70;51.00
11619;DHT22;5865;48.776;9.280;2023-07-22T17:31:15;25.70;52.40
11619;DHT22;5865;48.776;9.280;2023-07-22T17:33:42;25.80;52.20
11619;DHT22;5865;48.776;9.280;2023-07-22T17:36:09;25.70;52.10
11619;DHT22;5865;48.776;9.280;2023-07-22T17:38:36;25.70;52.60
11619;DHT22;5865;48.776;9.280;2023-07-22T17:41:05;25.70;52.50
11619;DHT22;5865;48.776;9.280;2023-07-22T17:43:31;25.70;52.20
11619;DHT22;5865;48.776;9.280;2023-07-22T17:48:26;25.50;52.00
11619;DHT22;5865;48.776;9.280;2023-07-22T17:50:53;25.40;53.00
11619;DHT22;5865;48.776;9.280;2023-07-22T17:53:22;25.40;54.50
11619;DHT22;5865;48.776;9.280;2023-07-22T17:55:49;25.40;53.50
11619;DHT22;5865;48.776;9.280;2023-07-22T17:58:17;25.40;53.60
11619;DHT22;5865;48.776;9.280;2023-07-22T18:00:44;25.40;53.20
11619;DHT22;5865;48.776;9.280;2023-07-22T18:03:11;25.20;53.00
11619;DHT22;5865;48.776;9.280;2023-07-22T18:05:38;25.00;52.40
11619;DHT22;5865;48.776;9.280;2023-07-22T18:08:11;24.90;52.90
11619;DHT22;5865;48.776;9.280;2023-07-22T18:10:38;24.80;52.90
11619;DHT22;5865;48.776;9.280;2023-07-22T18:13:05;24.70;53.50
11619;DHT22;5865;48.776;9.280;2023-07-22T18:15:34;24.60;53.00
11619;DHT22;5865;48.776;9.280;2023-07-22T18:18:01;24.50;53.60
11619;DHT22;5865;48.776;9.280;2023-07-22T18:20:28;24.40;54.00
11619;DHT22;5865;48.776;9.280;2023-07-22T18:22:55;24.30;53.90
11619;DHT22;5865;48.776;9.280;2023-07-22T18:25:22;24.10;54.50
11619;DHT22;5865;48.776;9.280;2023-07-22T18:27:49;24.10;55.00
11619;DHT22;5865;48.776;9.280;2023-07-22T18:30:16;23.90;54.30
11619;DHT22;5865;48.776;9.280;2023-07-22T18:32:44;23.80;54.70
11619;DHT22;5865;48.776;9.280;2023-07-22T18:35:11;23.60;55.70
11619;DHT22;5865;48.776;9.280;2023-07-22T18:37:38;23.50;56.30
11619;DHT22;5865;48.776;9.280;2023-07-22T18:40:06;23.40;56.70
11619;DHT22;5865;48.776;9.280;2023-07-22T18:42:33;23.20;57.40
11619;DHT22;5865;48.776;9.280;2023-07-22T18:45:00;22.90;57.80
11619;DHT22;5865;48.776;9.280;2023-07-22T18:47:27;22.90;58.30
11619;DHT22;5865;48.776;9.280;2023-07-22T18:49:56;22.70;59.00
11619;DHT22;5865;48.776;9.280;2023-07-22T18:52:23;22.50;60.60
11619;DHT22;5865;48.776;9.280;2023-07-22T18:54:49;22.00;63.90
11619;DHT22;5865;48.776;9.280;2023-07-22T18:57:16;22.00;64.80
11619;DHT22;5865;48.776;9.280;2023-07-22T18:59:43;21.70;65.60
11619;DHT22;5865;48.776;9.280;2023-07-22T19:02:10;21.50;67.10
11619;DHT22;5865;48.776;9.280;2023-07-22T19:04:37;21.20;69.10
11619;DHT22;5865;48.776;9.280;2023-07-22T19:07:06;20.80;71.00
11619;DHT22;5865;48.776;9.280;2023-07-22T19:09:33;20.50;73.40
11619;DHT22;5865;48.776;9.280;2023-07-22T19:12:00;20.20;76.20
11619;DHT22;5865;48.776;9.280;2023-07-22T19:14:27;19.80;83.70
11619;DHT22;5865;48.776;9.280;2023-07-22T19:16:55;19.80;83.70
11619;DHT22;5865;48.776;9.280;2023-07-22T19:21:51;19.30;89.80
11619;DHT22;5865;48.776;9.280;2023-07-22T19:24:19;19.10;92.60
11619;DHT22;5865;48.776;9.280;2023-07-22T19:26:46;18.90;94.30
11619;DHT22;5865;48.776;9.280;2023-07-22T19:29:13;18.80;96.10
11619;DHT22;5865;48.776;9.280;2023-07-22T19:31:40;18.50;98.20
11619;DHT22;5865;48.776;9.280;2023-07-22T19:34:07;18.40;99.80
11619;DHT22;5865;48.776;9.280;2023-07-22T19:36:33;18.00;99.90
11619;DHT22;5865;48.776;9.280;2023-07-22T19:39:00;17.90;99.90
11619;DHT22;5865;48.776;9.280;2023-07-22T19:41:29;17.70;99.90
11619;DHT22;5865;48.776;9.280;2023-07-22T19:43:56;17.60;99.90
11619;DHT22;5865;48.776;9.280;2023-07-22T19:46:23;17.50;99.90
11619;DHT22;5865;48.776;9.280;2023-07-22T19:51:17;17.20;99.90
11619;DHT22;5865;48.776;9.280;2023-07-22T19:53:45;17.20;99.90
11619;DHT22;5865;48.776;9.280;2023-07-22T19:56:13;17.00;99.90
11619;DHT22;5865;48.776;9.280;2023-07-22T19:58:41;17.00;99.90
11619;DHT22;5865;48.776;9.280;2023-07-22T20:01:08;16.90;99.90
11619;DHT22;5865;48.776;9.280;2023-07-22T20:03:35;16.80;99.90
11619;DHT22;5865;48.776;9.280;2023-07-22T20:06:03;16.60;99.90
11619;DHT22;5865;48.776;9.280;2023-07-22T20:08:31;16.60;99.90
11619;DHT22;5865;48.776;9.280;2023-07-22T20:10:58;16.60;99.90
11619;DHT22;5865;48.776;9.280;2023-07-22T20:13:25;16.40;99.90
11619;DHT22;5865;48.776;9.280;2023-07-22T20:15:53;16.30;99.90
11619;DHT22;5865;48.776;9.280;2023-07-22T20:18:20;16.30;99.90
11619;DHT22;5865;48.776;9.280;2023-07-22T20:20:47;16.30;99.90
11619;DHT22;5865;48.776;9.280;2023-07-22T20:25:41;16.50;99.90
11619;DHT22;5865;48.776;9.280;2023-07-22T20:28:08;16.50;99.90
11619;DHT22;5865;48.776;9.280;2023-07-22T20:30:35;16.60;99.90
11619;DHT22;5865;48.776;9.280;2023-07-22T20:33:04;16.60;99.90
11619;DHT22;5865;48.776;9.280;2023-07-22T20:35:31;16.80;99.90
11619;DHT22;5865;48.776;9.280;2023-07-22T20:37:58;16.80;99.90
11619;DHT22;5865;48.776;9.280;2023-07-22T20:40:25;17.00;99.90
11619;DHT22;5865;48.776;9.280;2023-07-22T20:42:52;16.90;99.90
11619;DHT22;5865;48.776;9.280;2023-07-22T20:45:20;16.80;99.90
11619;DHT22;5865;48.776;9.280;2023-07-22T20:47:47;16.80;99.90
11619;DHT22;5865;48.776;9.280;2023-07-22T20:50:16;16.80;99.90
11619;DHT22;5865;48.776;9.280;2023-07-22T20:52:43;16.70;99.90
11619;DHT22;5865;48.776;9.280;2023-07-22T20:55:10;16.80;99.90
11619;DHT22;5865;48.776;9.280;2023-07-22T20:57:37;16.80;99.90
11619;DHT22;5865;48.776;9.280;2023-07-22T21:00:05;16.80;99.90
11619;DHT22;5865;48.776;9.280;2023-07-22T21:11:24;16.90;99.90
11619;DHT22;5865;48.776;9.280;2023-07-22T21:16:32;17.00;99.90
